Flight Track Log - Related Links

Times and Time Zones

All times are in EDT time to prevent confusion due to time zone crossing. See the CDG1157 flight status page for this flight to view local times or setup timezone preferences in your user account.

Time Position Orientation Groundspeed Altitude Reporting Facility
EDT Latitude Longitude Course Direction KTS MPH feet Rate Location/Type
Wed 02:33:00 AM 29.0103 117.8983 356° North  Level Estimated
Wed 02:34:00 AM 29.0873 117.8921 356° North  Level Estimated
Wed 02:35:00 AM 29.1642 117.8860 356° North  Level Estimated
Wed 02:36:00 AM 29.2412 117.8798 356° North  Level Estimated
Wed 02:37:00 AM 29.3182 117.8736 356° North  Level Estimated
Wed 02:38:00 AM 29.3951 117.8675 356° North  Level Estimated
Wed 02:39:00 AM 29.4721 117.8613 356° North  Level Estimated
Wed 02:40:00 AM 29.5490 117.8551 356° North  Level Estimated
Wed 02:41:00 AM 29.6260 117.8489 356° North  Level Estimated
Wed 02:42:00 AM 29.7030 117.8426 356° North  Level Estimated
Wed 02:43:00 AM 29.7799 117.8364 356° North  Level Estimated
Wed 02:44:00 AM 29.8569 117.8302 356° North  Level Estimated
Wed 02:45:00 AM 29.9338 117.8239 356° North  Level Estimated
Wed 02:46:00 AM 30.0108 117.8177 356° North  Level Estimated
Wed 02:47:00 AM 30.0877 117.8114 356° North  Level Estimated
Wed 02:48:00 AM 30.1647 117.8051 356° North  Level Estimated
Wed 02:49:00 AM 30.2417 117.7988 356° North  Level Estimated
Wed 02:50:00 AM 30.3186 117.7925 356° North  Level Estimated
Wed 02:51:00 AM 30.3956 117.7862 356° North  Level Estimated
Wed 02:52:00 AM 30.4725 117.7799 356° North  Level Estimated
Wed 02:53:00 AM 30.5495 117.7736 356° North  Level Estimated
Wed 02:54:00 AM 30.6264 117.7672 356° North  Level Estimated
Wed 02:55:00 AM 30.7034 117.7609 356° North  Level Estimated
Wed 02:56:00 AM 30.7803 117.7545 356° North  Level Estimated
Wed 02:57:00 AM 30.8573 117.7482 356° North  Level Estimated
Wed 02:58:00 AM 30.9342 117.7418 356° North  Level Estimated
Wed 02:59:00 AM 31.0112 117.7354 356° North  Level Estimated
Wed 03:00:00 AM 31.0882 117.7290 356° North  Level Estimated
Wed 03:01:00 AM 31.1651 117.7226 356° North  Level Estimated
Wed 03:02:00 AM 31.2421 117.7162 356° North  Level Estimated
Wed 03:03:00 AM 31.3190 117.7097 356° North  Level Estimated
Wed 03:04:00 AM 31.3960 117.7033 356° North  Level Estimated
Wed 03:05:00 AM 31.4729 117.6969 356° North  Level Estimated
Wed 03:06:00 AM 31.5499 117.6904 356° North  Level Estimated
Wed 03:07:00 AM 31.6268 117.6839 356° North  Level Estimated
Wed 03:08:00 AM 31.7038 117.6774 356° North  Level Estimated
Wed 03:09:00 AM 31.7807 117.6709 356° North  Level Estimated
Wed 03:10:00 AM 31.8577 117.6644 356° North  Level Estimated
Wed 03:11:00 AM 31.9346 117.6579 356° North  Level Estimated
Wed 03:12:00 AM 32.0116 117.6514 356° North  Level Estimated
Wed 03:13:00 AM 32.0885 117.6449 356° North  Level Estimated
Wed 03:14:00 AM 32.1655 117.6383 356° North  Level Estimated
Wed 03:15:00 AM 32.2424 117.6318 356° North  Level Estimated
Wed 03:16:00 AM 32.3194 117.6252 356° North  Level Estimated
Wed 03:17:00 AM 32.3963 117.6186 356° North  Level Estimated
Wed 03:18:00 AM 32.4733 117.6120 356° North  Level Estimated
Wed 03:19:00 AM 32.5502 117.6054 356° North  Level Estimated
Wed 03:20:00 AM 32.6272 117.5988 356° North  Level Estimated
Wed 03:21:00 AM 32.7041 117.5921 356° North  Level Estimated
Wed 03:22:00 AM 32.7811 117.5855 356° North  Level Estimated
Wed 03:23:00 AM 32.8580 117.5789 356° North  Level Estimated
Wed 03:24:00 AM 32.9349 117.5722 356° North  Level Estimated
Wed 03:25:00 AM 33.0119 117.5655 356° North  Level Estimated
Wed 03:26:00 AM 33.0888 117.5589 356° North  Level Estimated
Wed 03:27:00 AM 33.1658 117.5521 356° North  Level Estimated
Wed 03:28:00 AM 33.2427 117.5454 356° North  Level Estimated
Wed 03:29:00 AM 33.3197 117.5387 356° North  Level Estimated
Wed 03:30:00 AM 33.3966 117.5320 356° North  Level Estimated
Wed 03:31:00 AM 33.4735 117.5252 356° North  Level Estimated
Wed 03:32:00 AM 33.5505 117.5185 356° North  Level Estimated
Wed 03:33:00 AM 33.6274 117.5117 356° North  Level Estimated
Wed 03:34:00 AM 33.7044 117.5049 356° North  Level Estimated
Wed 03:35:00 AM 33.7813 117.4982 356° North  Level Estimated
Wed 03:36:00 AM 33.8582 117.4913 356° North  Level Estimated
Wed 03:37:00 AM 33.9352 117.4845 356° North  Level Estimated
Wed 03:38:00 AM 34.0121 117.4777 356° North  Level Estimated
Wed 03:39:00 AM 34.0891 117.4709 356° North  Level Estimated
Wed 03:40:00 AM 34.1660 117.4640 356° North  Level Estimated
Wed 03:41:00 AM 34.2430 117.4571 356° North  Level Estimated
Wed 03:42:00 AM 34.3199 117.4503 356° North  Level Estimated
Wed 03:43:00 AM 34.3968 117.4434 356° North  Level Estimated
Wed 03:44:00 AM 34.4738 117.4365 356° North  Level Estimated
Wed 03:45:00 AM 34.5507 117.4295 356° North  Level Estimated
Wed 03:46:00 AM 34.6276 117.4226 356° North  Level Estimated
Wed 03:47:00 AM 34.7046 117.4157 356° North  Level Estimated
Wed 03:48:00 AM 34.7815 117.4087 356° North  Level Estimated
Wed 03:49:00 AM 34.8584 117.4017 356° North  Level Estimated
Wed 03:50:00 AM 34.9354 117.3948 356° North  Level Estimated
Wed 03:51:00 AM 35.0123 117.3878 356° North  Level Estimated
Wed 03:52:00 AM 35.0892 117.3808 356° North  Level Estimated
Wed 03:53:00 AM 35.1662 117.3737 356° North  Level Estimated
Wed 03:54:00 AM 35.2431 117.3667 356° North  Level Estimated
Wed 03:55:00 AM 35.3200 117.3597 356° North  Level Estimated
Wed 03:56:00 AM 35.3970 117.3526 356° North  Level Estimated
Wed 03:57:00 AM 35.4739 117.3455 356° North  Level Estimated
Wed 03:58:00 AM 35.5508 117.3384 356° North  Level Estimated
Wed 03:59:00 AM 35.6278 117.3313 356° North  Level Estimated
Wed 04:00:00 AM 35.7047 117.3242 356° North  Level Estimated
Wed 04:01:00 AM 35.7816 117.3171 356° North  Level Estimated
Wed 04:02:00 AM 35.8586 117.3100 356° North  Level Estimated
Wed 04:03:00 AM 35.9355 117.3028 356° North  Level Estimated
Wed 04:04:00 AM 36.0124 117.2956 356° North  Level Estimated
Wed 04:05:00 AM 36.0894 117.2884 356° North  Level Estimated
Wed 04:06:00 AM 36.1663 117.2812 356° North  Level Estimated
Wed 04:07:00 AM 36.2432 117.2740 356° North  Level Estimated
Wed 04:08:00 AM 36.3201 117.2668 356° North  Level Estimated
Wed 04:09:00 AM 36.3971 117.2596 356° North  Level Estimated
Wed 04:10:00 AM 36.4740 117.2523 356° North  Level Estimated
Wed 04:11:00 AM 36.5509 117.2450 356° North  Level Estimated
Wed 04:12:00 AM 36.6278 117.2377 356° North  Level Estimated
Wed 04:13:00 AM 36.7048 117.2304 356° North  Level Estimated
Wed 04:14:00 AM 36.7817 117.2231 356° North  Level Estimated
Wed 04:15:00 AM 36.8566 117.2160 356° North  Level Estimated
Wed 04:16:00 AM 36.8566 117.2160 North  Level Estimated
Wed 04:17:00 AM 36.8566 117.2160 North  Level Estimated
Wed 04:18:00 AM 36.8566 117.2160 North  Level Estimated
Wed 04:19:00 AM 36.8566 117.2160 North  Level Estimated
Wed 04:20:00 AM 36.8566 117.2160 North  Level Estimated
Wed 04:21:00 AM 36.8566 117.2160 North  Level Estimated
Wed 04:22:00 AM 36.8566 117.2160 North  Level Estimated
Wed 04:23:00 AM 36.8566 117.2160 North  Level Estimated
Wed 04:24:00 AM 36.8566 117.2160 North  Level Estimated
Wed 04:25:00 AM 36.8566 117.2160 North  Level Estimated
Wed 04:26:00 AM 36.8566 117.2160 North  Level Estimated
Wed 04:27:00 AM 36.8566 117.2160 North  Level Estimated
Wed 04:28:00 AM 36.8566 117.2160 North  Level Estimated

Login

Don't have an account? Register now (free) for customized features, flight alerts, and more!